Time;durP1;ratioP1;P1;durP2;ratioP2;P2;SDS_P1;SDS_P2;PMS_P1;PMS_P2;Temp;Humidity;BMP_temperature;BMP_pressure;BME280_temperature;BME280_humidity;BME280_pressure;Samples;Min_cycle;Max_cycle;Signal;HPM_P1;HPM_P2
2022/04/17 00:01:32;;;;;;;2.38;1.65;;;20.90;47.60;;;;;;4936490;29;20111;-74
2022/04/17 00:03:58;;;;;;;2.38;1.65;;;20.90;47.70;;;;;;4936190;29;20450;-74
2022/04/17 00:06:23;;;;;;;2.25;1.52;;;20.90;47.70;;;;;;4936515;29;20400;-74
2022/04/17 00:08:49;;;;;;;3.03;1.50;;;20.90;47.70;;;;;;4934360;29;20035;-74
2022/04/17 00:11:15;;;;;;;2.88;1.80;;;20.90;47.60;;;;;;4936087;29;20031;-74
2022/04/17 00:13:44;;;;;;;2.10;1.40;;;20.90;47.60;;;;;;4935769;29;20510;-74
2022/04/17 00:16:10;;;;;;;2.50;1.70;;;20.90;47.60;;;;;;4934785;28;20024;-74
2022/04/17 00:18:36;;;;;;;2.28;1.70;;;20.90;47.50;;;;;;4934600;29;20087;-74
2022/04/17 00:21:03;;;;;;;2.53;1.80;;;20.90;47.50;;;;;;4936059;29;20032;-74
2022/04/17 00:23:29;;;;;;;2.28;1.60;;;20.90;47.60;;;;;;4934876;29;20028;-74
2022/04/17 00:25:55;;;;;;;2.35;1.75;;;20.80;47.50;;;;;;4935988;29;20127;-74
2022/04/17 00:28:21;;;;;;;2.28;1.70;;;20.80;47.50;;;;;;4934527;29;20040;-73
2022/04/17 00:30:46;;;;;;;2.83;1.80;;;20.90;47.60;;;;;;4934788;29;20035;-74
2022/04/17 00:33:12;;;;;;;2.42;1.50;;;20.80;47.50;;;;;;4935751;29;20596;-74
2022/04/17 00:35:43;;;;;;;2.47;1.60;;;20.80;47.50;;;;;;4935132;29;20035;-74
2022/04/17 00:38:08;;;;;;;2.95;1.67;;;20.80;47.50;;;;;;4934352;29;20039;-74
2022/04/17 00:40:34;;;;;;;1.90;1.40;;;20.80;47.50;;;;;;4935756;29;20495;-74
2022/04/17 00:43:00;;;;;;;2.03;1.50;;;20.80;47.60;;;;;;4918887;29;20458;-74
2022/04/17 00:45:26;;;;;;;2.78;1.80;;;20.80;47.50;;;;;;4935472;29;20051;-74
2022/04/17 00:47:51;;;;;;;1.98;1.55;;;20.80;47.50;;;;;;4935205;29;20427;-74
2022/04/17 00:50:18;;;;;;;2.10;1.50;;;20.80;47.50;;;;;;4935408;29;20059;-74
2022/04/17 00:52:45;;;;;;;2.13;1.70;;;20.80;47.60;;;;;;4935385;29;20042;-74
2022/04/17 00:55:15;;;;;;;2.08;1.38;;;20.80;47.50;;;;;;4935512;28;20401;-74
2022/04/17 00:57:41;;;;;;;1.90;1.40;;;20.80;47.50;;;;;;4935041;29;20031;-74
2022/04/17 01:00:07;;;;;;;2.30;1.70;;;20.80;47.60;;;;;;4933958;29;20031;-74
2022/04/17 01:02:33;;;;;;;2.45;1.63;;;20.80;47.50;;;;;;4934220;29;20103;-74
2022/04/17 01:04:59;;;;;;;2.90;1.75;;;20.80;47.50;;;;;;4934016;29;20683;-74
2022/04/17 01:07:26;;;;;;;2.30;1.48;;;20.80;47.50;;;;;;4934691;29;20036;-75
2022/04/17 01:09:52;;;;;;;3.47;1.38;;;20.80;47.50;;;;;;4934987;29;20031;-74
2022/04/17 01:12:18;;;;;;;2.67;1.60;;;20.80;47.50;;;;;;4934003;29;20580;-74
2022/04/17 01:14:44;;;;;;;2.03;1.50;;;20.80;47.40;;;;;;4933766;29;20090;-74
2022/04/17 01:17:11;;;;;;;1.75;1.38;;;20.80;47.50;;;;;;4934615;29;20047;-74
2022/04/17 01:19:39;;;;;;;2.72;1.83;;;20.80;47.50;;;;;;4934855;29;20070;-74
2022/04/17 01:22:14;;;;;;;1.90;1.48;;;20.80;47.40;;;;;;4935045;29;20166;-74
2022/04/17 01:27:25;;;;;;;1.67;1.40;;;20.80;47.50;;;;;;4934581;29;20035;-74
2022/04/17 01:29:53;;;;;;;2.95;1.60;;;20.90;47.40;;;;;;4934954;29;20035;-74
2022/04/17 01:32:19;;;;;;;1.90;1.30;;;20.80;47.40;;;;;;4934621;29;20042;-74
2022/04/17 01:34:45;;;;;;;2.20;1.55;;;20.80;47.50;;;;;;4934500;29;20035;-74
2022/04/17 01:37:11;;;;;;;1.73;1.27;;;20.80;47.40;;;;;;4934274;29;20400;-74
2022/04/17 01:39:37;;;;;;;1.80;1.40;;;20.80;47.40;;;;;;4933396;29;20062;-74
2022/04/17 01:42:03;;;;;;;3.63;1.60;;;20.80;47.30;;;;;;4934732;29;20473;-74
2022/04/17 01:44:29;;;;;;;2.10;1.50;;;20.80;47.40;;;;;;4933146;29;20042;-73
2022/04/17 01:46:56;;;;;;;2.63;1.58;;;20.80;47.50;;;;;;4933218;29;20152;-74
2022/04/17 01:49:23;;;;;;;2.35;1.60;;;20.80;47.40;;;;;;4932818;28;20472;-74
2022/04/17 01:51:51;;;;;;;2.15;1.50;;;20.80;47.40;;;;;;4934333;29;20028;-74
2022/04/17 01:54:18;;;;;;;2.63;1.50;;;20.80;47.50;;;;;;4934283;29;20032;-74
2022/04/17 01:56:47;;;;;;;2.17;1.48;;;20.80;47.40;;;;;;4917450;29;20027;-74
2022/04/17 01:59:14;;;;;;;3.15;1.60;;;20.80;47.40;;;;;;4933955;29;20500;-74
2022/04/17 02:01:40;;;;;;;2.28;1.50;;;20.80;47.50;;;;;;4934007;29;20023;-73
2022/04/17 02:04:07;;;;;;;2.30;1.52;;;20.80;47.30;;;;;;4934361;29;20424;-73
2022/04/17 02:06:34;;;;;;;1.63;1.33;;;20.80;47.40;;;;;;4934036;29;20082;-74
2022/04/17 02:09:00;;;;;;;2.00;1.63;;;20.80;47.50;;;;;;4934318;29;20122;-74
2022/04/17 02:11:27;;;;;;;2.08;1.60;;;20.80;47.40;;;;;;4932843;29;20059;-74
2022/04/17 02:13:54;;;;;;;1.92;1.40;;;20.80;47.50;;;;;;4934025;29;20507;-74
2022/04/17 02:16:20;;;;;;;1.90;1.50;;;20.80;47.40;;;;;;4932591;29;20047;-74
2022/04/17 02:18:46;;;;;;;2.42;1.55;;;20.80;47.40;;;;;;4932535;28;20480;-74
2022/04/17 02:21:13;;;;;;;2.20;1.40;;;20.80;47.40;;;;;;4932810;29;20027;-73
2022/04/17 02:23:40;;;;;;;2.13;1.60;;;20.80;47.30;;;;;;4933016;29;20032;-74
2022/04/17 02:26:06;;;;;;;2.47;1.58;;;20.80;47.40;;;;;;4917042;29;20039;-74
2022/04/17 02:28:35;;;;;;;2.00;1.45;;;20.80;47.40;;;;;;4933580;29;20038;-73
2022/04/17 02:31:02;;;;;;;2.15;1.50;;;20.80;47.40;;;;;;4933772;29;20473;-74
2022/04/17 02:33:28;;;;;;;2.33;1.45;;;20.80;47.30;;;;;;4932976;28;20068;-73
2022/04/17 02:35:54;;;;;;;2.17;1.40;;;20.80;47.40;;;;;;4935957;29;20115;-74
2022/04/17 02:38:19;;;;;;;2.03;1.40;;;20.80;47.40;;;;;;4936394;29;20167;-74
2022/04/17 02:40:45;;;;;;;2.05;1.55;;;20.80;47.30;;;;;;4937672;29;20035;-74
2022/04/17 02:43:11;;;;;;;2.15;1.50;;;20.80;47.20;;;;;;4936628;29;20488;-74
2022/04/17 02:45:37;;;;;;;1.70;1.40;;;20.80;47.20;;;;;;4937601;29;20032;-74
2022/04/17 02:48:03;;;;;;;1.70;1.27;;;20.80;47.30;;;;;;4937469;29;20059;-74
2022/04/17 02:50:29;;;;;;;3.25;1.70;;;20.80;47.20;;;;;;4937473;29;20027;-74
2022/04/17 02:52:55;;;;;;;1.60;1.30;;;20.80;47.40;;;;;;4937677;29;20099;-74
2022/04/17 02:55:21;;;;;;;2.22;1.58;;;20.80;47.20;;;;;;4936175;28;20467;-74
2022/04/17 02:57:48;;;;;;;1.92;1.55;;;20.80;47.20;;;;;;4936009;29;20023;-74
2022/04/17 03:00:15;;;;;;;1.45;1.30;;;20.80;47.40;;;;;;4936295;29;20485;-74
2022/04/17 03:05:36;;;;;;;2.40;1.30;;;20.80;47.30;;;;;;4937383;29;20027;-74
2022/04/17 03:08:15;;;;;;;1.63;1.30;;;20.80;47.30;;;;;;4937063;29;20039;-74
2022/04/17 03:10:48;;;;;;;2.22;1.45;;;20.80;47.30;;;;;;4920332;29;20036;-74
2022/04/17 03:13:15;;;;;;;2.03;1.33;;;20.80;47.30;;;;;;4936071;29;20483;-74
2022/04/17 03:15:41;;;;;;;2.38;1.55;;;20.70;47.40;;;;;;4937001;29;21757;-74
2022/04/17 03:18:10;;;;;;;2.70;1.50;;;20.80;47.50;;;;;;4935948;29;20055;-74
2022/04/17 03:20:36;;;;;;;2.30;1.55;;;20.70;47.40;;;;;;4937153;29;20031;-74
2022/04/17 03:23:03;;;;;;;2.50;1.60;;;20.80;47.40;;;;;;4937137;28;20028;-74
2022/04/17 03:25:30;;;;;;;2.33;1.50;;;20.70;47.40;;;;;;4935865;29;20028;-74
2022/04/17 03:27:57;;;;;;;2.45;1.63;;;20.80;47.30;;;;;;4935707;29;20408;-74
2022/04/17 03:30:23;;;;;;;2.38;1.60;;;20.80;47.40;;;;;;4935402;29;20030;-74
2022/04/17 03:32:50;;;;;;;2.28;1.60;;;20.70;47.30;;;;;;4920107;29;20397;-74
2022/04/17 03:35:17;;;;;;;2.63;1.50;;;20.80;47.30;;;;;;4935614;29;20122;-74
2022/04/17 03:37:44;;;;;;;2.22;1.63;;;20.70;47.30;;;;;;4935055;29;20087;-74
2022/04/17 03:40:12;;;;;;;1.65;1.42;;;20.80;47.30;;;;;;4936894;29;20035;-74
2022/04/17 03:42:38;;;;;;;2.97;1.63;;;20.80;47.30;;;;;;4935309;29;20031;-74
2022/04/17 03:45:08;;;;;;;1.98;1.50;;;20.80;47.30;;;;;;4936850;29;20036;-74
2022/04/17 03:47:35;;;;;;;;;;;20.80;47.30;;;;;;4934153;29;20036;-74
2022/04/17 03:50:01;;;;;;;1.95;1.40;;;20.80;47.30;;;;;;4936748;29;19911;-74
2022/04/17 03:52:36;;;;;;;2.83;1.58;;;20.80;47.30;;;;;;4936630;29;20032;-74
2022/04/17 03:55:02;;;;;;;2.17;1.70;;;20.80;47.20;;;;;;4935545;29;20027;-74
2022/04/17 03:57:28;;;;;;;2.38;1.58;;;20.80;47.20;;;;;;4935861;29;20035;-74
2022/04/17 03:59:53;;;;;;;2.55;1.75;;;20.80;47.30;;;;;;4936521;29;20023;-74
2022/04/17 04:02:19;;;;;;;2.60;1.50;;;20.80;47.40;;;;;;4936152;29;20034;-74
2022/04/17 04:04:45;;;;;;;2.13;1.55;;;20.80;47.20;;;;;;4935145;29;20027;-75
2022/04/17 04:07:11;;;;;;;2.92;1.50;;;20.70;47.30;;;;;;4935805;29;20144;-74
2022/04/17 04:09:37;;;;;;;2.20;1.65;;;20.70;47.20;;;;;;4935317;29;20073;-74
2022/04/17 04:12:05;;;;;;;2.58;1.95;;;20.70;47.30;;;;;;4936171;29;20032;-75
2022/04/17 04:14:30;;;;;;;2.53;1.52;;;20.70;47.30;;;;;;4936232;29;20035;-75
2022/04/17 04:16:56;;;;;;;2.22;1.65;;;20.70;47.40;;;;;;4935830;29;20425;-74
2022/04/17 04:19:22;;;;;;;3.60;1.90;;;20.70;47.40;;;;;;4935764;29;20111;-73
2022/04/17 04:21:47;;;;;;;2.30;1.80;;;20.70;47.40;;;;;;4935948;29;20119;-74
2022/04/17 04:24:19;;;;;;;1.63;1.30;;;20.70;47.40;;;;;;4934847;29;20039;-73
2022/04/17 04:28:33;;;;;;;2.80;1.90;;;20.70;47.20;;;;;;4934506;29;20102;-73
2022/04/17 04:29:32;;;;;;;2.05;1.60;;;20.70;47.20;;;;;;4918839;29;20039;-74
2022/04/17 04:31:58;;;;;;;2.25;1.70;;;20.70;47.30;;;;;;4935795;29;20027;-74
2022/04/17 04:34:24;;;;;;;2.53;1.80;;;20.70;47.30;;;;;;4934503;29;20031;-74
2022/04/17 04:36:49;;;;;;;1.88;1.50;;;20.70;47.30;;;;;;4935431;29;20028;-74
2022/04/17 04:39:15;;;;;;;2.35;1.70;;;20.70;47.20;;;;;;4918741;29;20123;-73
2022/04/17 04:41:40;;;;;;;2.38;1.63;;;20.70;47.20;;;;;;4935638;28;20407;-73
2022/04/17 04:44:06;;;;;;;3.03;1.80;;;20.70;47.30;;;;;;4934478;29;20027;-74
2022/04/17 04:46:32;;;;;;;2.10;1.80;;;20.70;47.30;;;;;;4934151;29;20032;-74
2022/04/17 04:51:41;;;;;;;2.67;1.85;;;20.70;47.20;;;;;;4935731;29;20400;-73
2022/04/17 04:54:07;;;;;;;2.28;1.70;;;20.70;47.20;;;;;;4918620;29;20036;-73
2022/04/17 04:56:34;;;;;;;3.08;1.52;;;20.70;47.20;;;;;;4935261;29;20039;-74
2022/04/17 04:59:00;;;;;;;2.08;1.52;;;20.70;47.10;;;;;;4934791;29;20035;-74
2022/04/17 05:01:25;;;;;;;3.10;1.90;;;20.80;47.20;;;;;;4935372;29;20477;-73
2022/04/17 05:03:51;;;;;;;3.42;2.10;;;20.70;47.10;;;;;;4934987;29;20031;-74
2022/04/17 05:06:17;;;;;;;3.05;1.75;;;20.70;47.00;;;;;;4934152;28;20039;-73
2022/04/17 05:08:43;;;;;;;2.30;1.65;;;20.70;47.10;;;;;;4934653;29;20031;-73
2022/04/17 05:11:09;;;;;;;3.08;1.90;;;20.70;47.10;;;;;;4918246;29;20051;-74
2022/04/17 05:13:35;;;;;;;2.60;1.75;;;20.70;47.10;;;;;;4934910;29;20036;-74
2022/04/17 05:16:02;;;;;;;3.80;2.00;;;20.70;47.20;;;;;;4933795;29;20024;-73
2022/04/17 05:18:27;;;;;;;2.78;1.92;;;20.70;47.10;;;;;;4934972;29;20028;-74
2022/04/17 05:20:55;;;;;;;3.70;2.17;;;20.70;47.20;;;;;;4934961;29;20515;-74
2022/04/17 05:23:25;;;;;;;3.58;2.00;;;20.70;47.20;;;;;;4934808;29;20034;-74
2022/04/17 05:25:57;;;;;;;2.65;1.80;;;20.70;47.10;;;;;;4933643;29;20449;-74
2022/04/17 05:28:23;;;;;;;3.35;2.00;;;20.70;47.20;;;;;;4933234;29;20091;-74
2022/04/17 05:30:50;;;;;;;3.15;2.17;;;20.70;47.20;;;;;;4935147;29;20032;-74
2022/04/17 05:33:22;;;;;;;2.78;1.70;;;20.70;47.20;;;;;;4934571;29;20024;-74
2022/04/17 05:35:49;;;;;;;2.97;1.80;;;20.70;47.30;;;;;;4934647;29;20043;-74
2022/04/17 05:38:16;;;;;;;3.22;2.20;;;20.70;47.20;;;;;;4933195;28;20559;-74
2022/04/17 05:40:43;;;;;;;2.63;1.70;;;20.70;47.20;;;;;;4933690;29;20035;-74
2022/04/17 05:43:10;;;;;;;2.45;1.80;;;20.70;47.20;;;;;;4917445;29;20477;-74
2022/04/17 05:45:37;;;;;;;3.00;2.05;;;20.70;47.10;;;;;;4917749;29;20400;-74
2022/04/17 05:48:05;;;;;;;3.00;2.10;;;20.70;47.20;;;;;;4934164;29;20067;-74
2022/04/17 05:50:31;;;;;;;2.88;1.90;;;20.70;47.00;;;;;;4934590;29;20626;-74
2022/04/17 05:52:57;;;;;;;2.58;2.00;;;20.70;47.10;;;;;;4934454;29;20118;-73
2022/04/17 05:55:23;;;;;;;2.25;1.80;;;20.70;47.10;;;;;;4932795;29;20374;-74
2022/04/17 05:57:49;;;;;;;3.70;2.25;;;20.70;47.10;;;;;;4933882;29;20038;-75
2022/04/17 06:00:16;;;;;;;3.50;1.85;;;20.70;47.00;;;;;;4933462;29;20091;-74
2022/04/17 06:02:48;;;;;;;3.30;1.98;;;20.70;47.00;;;;;;4934248;29;20027;-73
2022/04/17 06:05:15;;;;;;;3.55;2.20;;;20.80;47.00;;;;;;4934110;29;20028;-73
2022/04/17 06:07:41;;;;;;;3.60;2.03;;;20.70;46.90;;;;;;4933561;29;20118;-74
2022/04/17 06:10:09;;;;;;;3.70;2.30;;;20.80;46.90;;;;;;4932374;29;20072;-74
2022/04/17 06:12:35;;;;;;;3.70;2.10;;;20.80;47.00;;;;;;4932996;29;20030;-74
2022/04/17 06:15:02;;;;;;;3.53;1.98;;;20.80;47.10;;;;;;4934050;29;20038;-74
2022/04/17 06:17:35;;;;;;;3.03;2.00;;;20.80;47.00;;;;;;4933865;29;20032;-74
2022/04/17 06:20:05;;;;;;;3.70;2.20;;;20.80;46.90;;;;;;4932883;29;20043;-74
2022/04/17 06:22:31;;;;;;;3.33;2.08;;;20.80;47.00;;;;;;4934509;29;20392;-74
2022/04/17 06:24:56;;;;;;;3.00;2.10;;;20.80;46.80;;;;;;4933962;29;20032;-74
2022/04/17 06:27:22;;;;;;;2.95;1.95;;;20.80;46.80;;;;;;4932803;28;20087;-74
2022/04/17 06:29:48;;;;;;;3.33;2.20;;;20.80;46.70;;;;;;4932658;29;20099;-74
2022/04/17 06:32:13;;;;;;;3.30;2.10;;;20.80;46.70;;;;;;4932107;29;20040;-73
2022/04/17 06:34:39;;;;;;;3.95;2.25;;;20.80;46.80;;;;;;4933774;29;20035;-73
2022/04/17 06:37:05;;;;;;;3.28;1.92;;;20.80;46.70;;;;;;4933658;29;20520;-73
2022/04/17 06:39:30;;;;;;;5.70;2.63;;;20.80;46.80;;;;;;4933681;29;20039;-74
2022/04/17 06:41:57;;;;;;;3.20;2.20;;;20.80;46.80;;;;;;4934238;29;20036;-75
2022/04/17 06:44:24;;;;;;;3.78;2.20;;;20.80;46.80;;;;;;4932825;29;20031;-74
2022/04/17 06:46:50;;;;;;;3.67;2.25;;;20.80;46.70;;;;;;4933701;29;20079;-73
2022/04/17 06:49:16;;;;;;;4.15;2.50;;;20.80;46.80;;;;;;4916516;29;20508;-74
2022/04/17 06:51:41;;;;;;;3.38;2.20;;;20.80;46.80;;;;;;4932909;29;20517;-74
2022/04/17 06:54:08;;;;;;;3.75;2.22;;;20.80;46.70;;;;;;4932386;29;20036;-74
2022/04/17 06:56:34;;;;;;;3.22;2.20;;;20.80;46.80;;;;;;4933617;29;20034;-74
2022/04/17 06:59:01;;;;;;;3.15;2.08;;;20.80;47.00;;;;;;4932396;28;20028;-74
2022/04/17 07:01:27;;;;;;;4.47;2.40;;;20.90;47.00;;;;;;4932503;29;20028;-74
2022/04/17 07:03:53;;;;;;;3.67;2.30;;;20.80;47.00;;;;;;4932530;29;20031;-74
2022/04/17 07:06:18;;;;;;;2.55;1.88;;;20.90;47.00;;;;;;4932341;29;20031;-74
2022/04/17 07:08:44;;;;;;;3.60;2.35;;;20.90;47.10;;;;;;4931946;29;20090;-74
2022/04/17 07:11:10;;;;;;;3.63;2.33;;;20.90;47.10;;;;;;4933714;29;20031;-74
2022/04/17 07:13:36;;;;;;;3.30;2.13;;;20.90;47.10;;;;;;4932565;28;20453;-74
2022/04/17 07:16:04;;;;;;;3.85;2.40;;;20.90;47.10;;;;;;4933472;29;20392;-73
2022/04/17 07:18:29;;;;;;;2.70;1.90;;;20.90;47.20;;;;;;4933103;29;20038;-74
2022/04/17 07:20:55;;;;;;;3.53;2.10;;;20.90;47.10;;;;;;4934108;29;20024;-74
2022/04/17 07:23:21;;;;;;;3.17;2.10;;;21.00;47.60;;;;;;4936142;29;20096;-75
2022/04/17 07:25:46;;;;;;;3.95;2.05;;;21.00;47.20;;;;;;4935938;29;20399;-74
2022/04/17 07:28:12;;;;;;;3.20;2.10;;;21.00;47.70;;;;;;4936757;29;20400;-74
2022/04/17 07:30:38;;;;;;;3.15;2.10;;;21.00;47.90;;;;;;4936833;29;20051;-74
2022/04/17 07:33:04;;;;;;;3.78;2.35;;;21.00;47.80;;;;;;4935769;29;20028;-74
2022/04/17 07:35:30;;;;;;;3.42;2.00;;;21.00;47.90;;;;;;4937104;29;20408;-74
2022/04/17 07:37:58;;;;;;;3.80;2.28;;;21.00;48.00;;;;;;4935496;29;20401;-75
2022/04/17 07:40:29;;;;;;;3.17;2.15;;;21.00;48.00;;;;;;4919761;29;20024;-75
2022/04/17 07:42:58;;;;;;;3.00;2.25;;;21.00;48.10;;;;;;4936637;29;20134;-74
2022/04/17 07:45:24;;;;;;;4.43;2.17;;;21.00;48.10;;;;;;4935663;29;20709;-75
2022/04/17 07:47:51;;;;;;;3.00;2.00;;;21.00;48.10;;;;;;4936583;29;20443;-74
2022/04/17 07:50:23;;;;;;;3.65;2.17;;;21.00;48.10;;;;;;4935497;29;20040;-75
2022/04/17 07:52:50;;;;;;;3.80;2.30;;;21.00;48.10;;;;;;4936618;29;20038;-74
2022/04/17 07:55:17;;;;;;;3.35;2.30;;;21.00;48.20;;;;;;4935114;29;20070;-74
2022/04/17 08:00:35;;;;;;;3.22;2.08;;;21.10;48.20;;;;;;4936352;29;20032;-74
2022/04/17 08:03:07;;;;;;;3.58;2.28;;;21.10;48.20;;;;;;4919431;29;20094;-74
2022/04/17 08:05:38;;;;;;;3.47;2.00;;;21.10;48.20;;;;;;4936111;29;20082;-75
2022/04/17 08:08:04;;;;;;;3.22;2.10;;;21.10;48.20;;;;;;4935588;29;20067;-75
2022/04/17 08:10:30;;;;;;;3.38;2.20;;;21.10;48.30;;;;;;4934994;29;20061;-76
2022/04/17 08:12:56;;;;;;;3.40;2.20;;;21.10;48.20;;;;;;4936369;29;20082;-74
2022/04/17 08:15:21;;;;;;;2.83;2.13;;;21.10;48.30;;;;;;4935960;29;20043;-74
2022/04/17 08:17:47;;;;;;;3.80;2.20;;;21.10;48.20;;;;;;4918948;29;20120;-74
2022/04/17 08:20:13;;;;;;;3.03;2.20;;;21.10;48.20;;;;;;4935895;29;20066;-74
2022/04/17 08:22:38;;;;;;;3.10;2.00;;;21.10;48.10;;;;;;4919049;29;20130;-74
2022/04/17 08:25:07;;;;;;;3.30;2.30;;;21.00;48.20;;;;;;4935919;29;20050;-74
2022/04/17 08:27:32;;;;;;;3.20;2.17;;;21.10;48.20;;;;;;4935762;29;20370;-74
2022/04/17 08:29:59;;;;;;;3.22;2.13;;;21.10;48.30;;;;;;4935790;29;20034;-74
2022/04/17 08:32:24;;;;;;;2.80;2.10;;;21.10;48.30;;;;;;4935453;29;20551;-75
2022/04/17 08:34:50;;;;;;;3.08;2.20;;;21.10;48.20;;;;;;4935552;29;20083;-74
2022/04/17 08:37:16;;;;;;;2.63;1.98;;;21.10;48.10;;;;;;4918437;29;20485;-73
2022/04/17 08:39:41;;;;;;;3.63;2.20;;;21.10;48.20;;;;;;4935694;29;20031;-73
2022/04/17 08:42:08;;;;;;;3.25;2.17;;;21.10;48.20;;;;;;4934431;29;20035;-74
2022/04/17 08:44:34;;;;;;;3.08;2.10;;;21.10;48.20;;;;;;4935798;29;20035;-74
2022/04/17 08:46:59;;;;;;;4.00;2.33;;;21.10;48.20;;;;;;4934208;29;20031;-74
2022/04/17 08:49:25;;;;;;;3.17;2.10;;;21.10;48.20;;;;;;4935920;29;20038;-74
2022/04/17 08:51:55;;;;;;;3.25;2.22;;;21.10;48.20;;;;;;4935410;29;20584;-74
2022/04/17 08:54:26;;;;;;;3.08;2.03;;;21.10;48.30;;;;;;4934266;29;20039;-74
2022/04/17 08:56:52;;;;;;;3.97;2.08;;;21.10;48.20;;;;;;4934223;29;20411;-75
2022/04/17 08:59:18;;;;;;;3.40;2.20;;;21.10;48.30;;;;;;4935138;28;20531;-74
2022/04/17 09:01:43;;;;;;;3.15;2.17;;;21.10;48.30;;;;;;4934090;29;20036;-74
2022/04/17 09:04:09;;;;;;;3.42;2.10;;;21.10;48.40;;;;;;4935214;29;20032;-74
2022/04/17 09:06:35;;;;;;;2.67;2.08;;;21.10;48.30;;;;;;4933938;29;20035;-75
2022/04/17 09:09:03;;;;;;;3.33;2.25;;;21.10;48.40;;;;;;4934895;29;20065;-75
2022/04/17 09:11:33;;;;;;;3.22;2.10;;;21.10;47.90;;;;;;4935155;29;20071;-76
2022/04/17 09:14:01;;;;;;;2.85;1.98;;;21.10;48.40;;;;;;4935489;29;20489;-74
2022/04/17 09:16:28;;;;;;;2.55;1.90;;;21.10;48.40;;;;;;4933666;29;20078;-74
2022/04/17 09:18:55;;;;;;;3.35;2.13;;;21.10;48.40;;;;;;4933189;29;20106;-74
2022/04/17 09:21:29;;;;;;;2.55;1.80;;;21.10;48.50;;;;;;4933686;29;20114;-74
2022/04/17 09:24:12;;;;;;;2.83;2.03;;;21.10;48.50;;;;;;4935406;29;20452;-75
2022/04/17 09:26:46;;;;;;;3.22;2.10;;;21.10;48.40;;;;;;4933728;29;20086;-74
2022/04/17 09:29:38;;;;;;;3.05;2.25;;;21.10;48.50;;;;;;4934525;29;20031;-74
2022/04/17 09:32:12;;;;;;;4.18;2.40;;;21.10;48.50;;;;;;4933832;28;20400;-74
2022/04/17 09:34:55;;;;;;;3.60;2.10;;;21.10;48.50;;;;;;4934694;29;20043;-74
2022/04/17 09:37:27;;;;;;;2.75;2.13;;;21.10;48.50;;;;;;4917465;29;20046;-74
2022/04/17 09:40:04;;;;;;;3.40;2.10;;;21.10;48.40;;;;;;4934573;29;20046;-74
2022/04/17 09:42:30;;;;;;;2.40;1.80;;;21.10;48.50;;;;;;4934625;29;20032;-75
2022/04/17 09:44:57;;;;;;;3.10;2.15;;;21.10;48.50;;;;;;4933901;29;20046;-75
2022/04/17 09:47:31;;;;;;;3.28;2.03;;;21.10;48.50;;;;;;4934197;29;20030;-75
2022/04/17 09:49:59;;;;;;;3.42;2.08;;;21.10;48.50;;;;;;4934982;29;20170;-75
2022/04/17 09:52:28;;;;;;;3.88;2.20;;;21.10;48.50;;;;;;4934386;29;20031;-75
2022/04/17 09:54:55;;;;;;;2.55;1.73;;;21.10;48.00;;;;;;4934244;29;20032;-75
2022/04/17 09:57:28;;;;;;;3.15;2.03;;;21.10;48.10;;;;;;4933011;28;20031;-75
2022/04/17 09:59:56;;;;;;;3.60;2.15;;;21.10;48.20;;;;;;4933066;29;20269;-75
2022/04/17 10:02:26;;;;;;;3.90;2.30;;;21.10;48.30;;;;;;4934321;29;20083;-75
2022/04/17 10:04:53;;;;;;;3.25;2.25;;;21.10;48.50;;;;;;4934390;29;20556;-76
2022/04/17 10:07:19;;;;;;;3.65;2.20;;;21.10;48.50;;;;;;4953039;23;20090;-76
2022/04/17 10:09:46;;;;;;;3.67;2.10;;;21.10;48.30;;;;;;4932839;29;20111;-76
2022/04/17 10:12:19;;;;;;;4.03;2.40;;;21.10;48.50;;;;;;4934065;29;20028;-76
2022/04/17 10:14:48;;;;;;;3.00;1.95;;;21.10;48.00;;;;;;4934218;29;20027;-75
2022/04/17 10:17:16;;;;;;;4.07;2.40;;;21.10;48.40;;;;;;4916988;29;20551;-75
2022/04/17 10:19:45;;;;;;;3.35;2.10;;;21.10;48.40;;;;;;4932835;29;20036;-76
2022/04/17 10:22:12;;;;;;;3.45;2.30;;;21.10;48.30;;;;;;4932995;29;20115;-76
2022/04/17 10:24:43;;;;;;;3.45;2.10;;;21.10;48.30;;;;;;4932834;29;20055;-75
2022/04/17 10:27:14;;;;;;;2.92;2.00;;;21.10;48.30;;;;;;4934293;29;20023;-75
2022/04/17 10:29:45;;;;;;;3.65;2.00;;;21.10;48.20;;;;;;4934290;28;20440;-75
2022/04/17 10:32:35;;;;;;;3.67;2.20;;;21.10;48.20;;;;;;4933826;29;20082;-74
2022/04/17 10:35:33;;;;;;;3.15;1.88;;;21.10;48.40;;;;;;4933838;29;20060;-75
2022/04/17 10:38:26;;;;;;;3.63;2.40;;;21.00;48.30;;;;;;4921954;29;20493;-75
2022/04/17 10:40:53;;;;;;;3.85;2.10;;;21.10;48.50;;;;;;4933850;29;20035;-74
2022/04/17 10:43:20;;;;;;;3.00;2.17;;;21.10;48.10;;;;;;4934010;29;20504;-75
2022/04/17 10:46:12;;;;;;;3.75;2.20;;;21.10;48.50;;;;;;4932548;29;20042;-75
2022/04/17 10:48:49;;;;;;;4.25;2.38;;;21.10;48.30;;;;;;4933526;29;20099;-75
2022/04/17 10:51:31;;;;;;;3.38;2.13;;;21.10;48.50;;;;;;4933784;29;20028;-75
2022/04/17 10:54:11;;;;;;;3.05;2.00;;;21.10;48.40;;;;;;4933988;29;20120;-75
2022/04/17 10:56:39;;;;;;;3.17;2.05;;;21.10;48.30;;;;;;4934321;28;20408;-75
2022/04/17 10:59:28;;;;;;;2.78;1.90;;;21.10;48.30;;;;;;4936432;29;20505;-74
2022/04/17 11:02:07;;;;;;;3.05;2.00;;;21.10;48.30;;;;;;4936348;29;20086;-74
2022/04/17 11:04:53;;;;;;;3.33;2.13;;;21.10;48.20;;;;;;4937482;29;20036;-75
2022/04/17 11:07:20;;;;;;;3.28;1.90;;;21.10;48.40;;;;;;4936804;29;20031;-75
2022/04/17 11:09:46;;;;;;;3.17;2.08;;;21.10;48.30;;;;;;4937455;29;20614;-74
2022/04/17 11:12:18;;;;;;;3.83;2.25;;;21.10;48.50;;;;;;4936023;29;20123;-75
2022/04/17 11:15:02;;;;;;;3.00;2.08;;;21.10;48.50;;;;;;4937295;29;20024;-74
2022/04/17 11:17:30;;;;;;;2.65;2.00;;;21.10;48.50;;;;;;4936868;29;20043;-74
2022/04/17 11:19:57;;;;;;;2.75;2.00;;;21.00;48.40;;;;;;4937736;29;20028;-75
2022/04/17 11:22:31;;;;;;;3.17;2.00;;;21.10;48.30;;;;;;4936045;29;20118;-75
2022/04/17 11:24:58;;;;;;;2.80;1.90;;;21.10;48.50;;;;;;4935960;29;20508;-74
2022/04/17 11:27:45;;;;;;;2.90;2.20;;;21.10;48.40;;;;;;4935465;29;20066;-75
2022/04/17 11:30:13;;;;;;;2.97;1.98;;;21.10;48.30;;;;;;4920113;29;20050;-75
2022/04/17 11:32:39;;;;;;;3.83;2.30;;;21.10;48.40;;;;;;4935920;29;20046;-74
2022/04/17 11:35:10;;;;;;;3.42;2.10;;;21.10;48.50;;;;;;4936046;29;20047;-74
2022/04/17 11:37:35;;;;;;;3.40;2.00;;;21.10;48.40;;;;;;4936465;29;20128;-76
2022/04/17 11:40:10;;;;;;;2.80;2.20;;;21.00;48.50;;;;;;4937117;29;20107;-75
2022/04/17 11:42:44;;;;;;;2.88;2.00;;;21.10;48.30;;;;;;4937001;29;20036;-75
2022/04/17 11:45:13;;;;;;;3.20;2.20;;;21.10;48.20;;;;;;4919952;29;20075;-75
2022/04/17 11:47:41;;;;;;;3.13;2.10;;;21.10;48.40;;;;;;4936545;29;20024;-75
2022/04/17 11:50:11;;;;;;;3.75;2.10;;;21.10;48.30;;;;;;4936660;29;20275;-75
2022/04/17 11:52:38;;;;;;;3.08;2.03;;;21.10;48.70;;;;;;4936633;29;20497;-75
2022/04/17 11:55:05;;;;;;;2.90;1.80;;;21.10;48.30;;;;;;4936723;29;20042;-74
2022/04/17 11:57:32;;;;;;;2.63;2.10;;;21.10;48.40;;;;;;4936308;29;20404;-74
2022/04/17 11:59:58;;;;;;;3.20;2.22;;;21.10;48.50;;;;;;4936572;29;20067;-74
2022/04/17 12:02:25;;;;;;;2.75;1.77;;;21.00;48.30;;;;;;4936389;29;20024;-73
2022/04/17 12:04:53;;;;;;;2.47;1.88;;;21.10;48.50;;;;;;4936458;29;20082;-74
2022/04/17 12:07:20;;;;;;;2.35;1.85;;;21.10;48.50;;;;;;4935055;29;20036;-73
2022/04/17 12:09:47;;;;;;;3.13;2.20;;;21.00;48.20;;;;;;4936160;29;20024;-74
2022/04/17 12:12:14;;;;;;;3.47;2.10;;;21.00;48.20;;;;;;4936616;29;20062;-74
2022/04/17 12:14:39;;;;;;;3.13;2.10;;;21.00;48.20;;;;;;4936508;29;20384;-74
2022/04/17 12:17:05;;;;;;;2.75;2.20;;;21.00;48.20;;;;;;4935936;29;20028;-73
2022/04/17 12:19:32;;;;;;;3.05;1.95;;;21.00;48.20;;;;;;4934921;29;20422;-74
2022/04/17 12:21:57;;;;;;;3.15;2.00;;;21.00;48.10;;;;;;4935001;29;20023;-75
2022/04/17 12:24:25;;;;;;;3.10;1.90;;;21.10;48.20;;;;;;4936193;29;20031;-74
2022/04/17 12:26:52;;;;;;;3.58;1.80;;;21.10;48.10;;;;;;4936016;29;20038;-74
2022/04/17 12:29:18;;;;;;;2.83;1.88;;;21.10;48.10;;;;;;4935819;29;20111;-74
2022/04/17 12:31:44;;;;;;;3.10;2.10;;;21.00;48.00;;;;;;4935871;29;20047;-74
2022/04/17 12:34:19;;;;;;;2.80;1.98;;;21.00;48.10;;;;;;4935914;29;20037;-74
2022/04/17 12:36:46;;;;;;;2.88;2.03;;;21.00;48.10;;;;;;4918689;29;20090;-74
2022/04/17 12:39:12;;;;;;;2.92;1.85;;;21.00;48.10;;;;;;4934691;29;20028;-74
2022/04/17 12:41:42;;;;;;;3.42;2.10;;;21.00;48.10;;;;;;4935613;29;20038;-74
2022/04/17 12:44:11;;;;;;;3.00;2.10;;;21.00;48.10;;;;;;4935669;29;20053;-74
2022/04/17 12:46:42;;;;;;;4.05;2.20;;;21.00;48.00;;;;;;4935551;29;20028;-74
2022/04/17 12:49:19;;;;;;;2.85;2.00;;;21.00;48.00;;;;;;4935390;29;20408;-74
2022/04/17 12:52:01;;;;;;;2.67;1.75;;;21.00;48.20;;;;;;4935756;29;20087;-74
2022/04/17 12:54:32;;;;;;;2.78;1.80;;;21.00;48.10;;;;;;4935919;29;20110;-74
2022/04/17 12:57:06;;;;;;;2.55;2.05;;;21.00;48.10;;;;;;4935275;29;20024;-74
2022/04/17 12:59:49;;;;;;;3.65;2.08;;;21.00;48.00;;;;;;4935398;29;20091;-75
2022/04/17 13:02:23;;;;;;;2.28;1.70;;;21.00;48.10;;;;;;4935363;29;20399;-75
2022/04/17 13:04:53;;;;;;;3.80;1.90;;;21.00;48.00;;;;;;4934652;29;20032;-74